Time;durP1;ratioP1;P1;durP2;ratioP2;P2;SDS_P1;SDS_P2;PMS_P1;PMS_P2;Temp;Humidity;BMP_temperature;BMP_pressure;BME280_temperature;BME280_humidity;BME280_pressure;Samples;Min_cycle;Max_cycle;Signal;HPM_P1;HPM_P2
2022/01/17 00:00:06;;;;;;;77.10;17.95;;;;;;;;;;5057566;28;20048;-69
2022/01/17 00:02:34;;;;;;;68.57;17.40;;;;;;;;;;5056386;28;20056;-69
2022/01/17 00:05:01;;;;;;;68.55;17.92;;;;;;;;;;5057383;28;20025;-69
2022/01/17 00:07:31;;;;;;;60.78;18.00;;;;;;;;;;5057141;28;20048;-69
2022/01/17 00:09:59;;;;;;;75.28;18.02;;;;;;;;;;5056132;28;20075;-69
2022/01/17 00:12:28;;;;;;;58.53;17.27;;;;;;;;;;5057206;28;20029;-69
2022/01/17 00:14:56;;;;;;;67.22;17.48;;;;;;;;;;5057163;28;20111;-69
2022/01/17 00:17:36;;;;;;;79.18;32.75;;;;;;;;;;5056911;28;20021;-68
2022/01/17 00:20:11;;;;;;;75.20;20.73;;;;;;;;;;5057010;28;20025;-68
2022/01/17 00:22:39;;;;;;;70.80;24.73;;;;;;;;;;5056599;28;20150;-68
2022/01/17 00:25:10;;;;;;;86.60;25.30;;;;;;;;;;5056846;28;20056;-68
2022/01/17 00:27:38;;;;;;;87.93;37.28;;;;;;;;;;5055553;28;20028;-68
2022/01/17 00:30:09;;;;;;;71.68;25.15;;;;;;;;;;5056784;28;20022;-68
2022/01/17 00:32:36;;;;;;;76.18;25.33;;;;;;;;;;5056765;28;20072;-69
2022/01/17 00:35:04;;;;;;;75.90;27.42;;;;;;;;;;5056859;28;20156;-69
2022/01/17 00:37:31;;;;;;;72.40;27.30;;;;;;;;;;5055528;28;20043;-69
2022/01/17 00:39:59;;;;;;;66.88;27.40;;;;;;;;;;5057025;28;20025;-69
2022/01/17 00:42:27;;;;;;;69.15;25.95;;;;;;;;;;5055524;28;20090;-69
2022/01/17 00:44:54;;;;;;;83.80;27.45;;;;;;;;;;5056537;28;20031;-69
2022/01/17 00:47:22;;;;;;;84.50;24.67;;;;;;;;;;5055237;28;20075;-69
2022/01/17 00:49:49;;;;;;;72.05;23.25;;;;;;;;;;5056425;28;20021;-69
2022/01/17 00:52:16;;;;;;;81.85;30.90;;;;;;;;;;5056136;28;20040;-69
2022/01/17 00:54:42;;;;;;;91.40;30.88;;;;;;;;;;5056391;28;20017;-69
2022/01/17 00:57:10;;;;;;;71.30;26.88;;;;;;;;;;5056236;28;20025;-69
2022/01/17 00:59:41;;;;;;;85.22;26.88;;;;;;;;;;5056286;28;20025;-70
2022/01/17 01:02:08;;;;;;;84.78;27.25;;;;;;;;;;5056130;28;20056;-69
2022/01/17 01:04:36;;;;;;;79.60;27.35;;;;;;;;;;5056286;28;20024;-69
2022/01/17 01:07:04;;;;;;;75.95;26.45;;;;;;;;;;5055985;28;20057;-70
2022/01/17 01:09:37;;;;;;;74.28;25.58;;;;;;;;;;5054839;28;20021;-69
2022/01/17 01:12:05;;;;;;;68.00;27.88;;;;;;;;;;5055932;28;20044;-69
2022/01/17 01:14:35;;;;;;;74.75;26.08;;;;;;;;;;5056079;28;20074;-69
2022/01/17 01:17:18;;;;;;;100.10;30.75;;;;;;;;;;5056049;28;20025;-70
2022/01/17 01:19:57;;;;;;;128.57;40.80;;;;;;;;;;5055847;28;20025;-70
2022/01/17 01:27:58;;;;;;;88.35;29.73;;;;;;;;;;5055555;28;20389;-69
2022/01/17 01:30:28;;;;;;;80.30;28.10;;;;;;;;;;5055784;28;20087;-74
2022/01/17 01:32:59;;;;;;;72.03;27.35;;;;;;;;;;5055811;28;20329;-75
2022/01/17 01:35:32;;;;;;;80.25;30.58;;;;;;;;;;5055067;28;20021;-72
2022/01/17 01:38:00;;;;;;;69.75;27.95;;;;;;;;;;5054426;28;20029;-72
2022/01/17 01:40:28;;;;;;;93.10;29.55;;;;;;;;;;5054322;28;20033;-74
2022/01/17 01:42:56;;;;;;;84.00;28.85;;;;;;;;;;5054347;28;20056;-72
2022/01/17 01:45:23;;;;;;;89.85;34.63;;;;;;;;;;5054337;28;20099;-76
2022/01/17 01:47:51;;;;;;;358.42;162.10;;;;;;;;;;5055338;28;20029;-72
2022/01/17 01:50:19;;;;;;;114.78;36.42;;;;;;;;;;5054276;28;20070;-71
2022/01/17 01:52:45;;;;;;;129.75;53.20;;;;;;;;;;5053950;28;20040;-71
2022/01/17 01:55:16;;;;;;;633.78;345.00;;;;;;;;;;5055404;28;20071;-71
2022/01/17 01:57:44;;;;;;;527.53;272.33;;;;;;;;;;5055218;28;20028;-71
2022/01/17 02:00:13;;;;;;;333.25;169.82;;;;;;;;;;5055143;28;20126;-72
2022/01/17 02:02:41;;;;;;;114.13;46.65;;;;;;;;;;5053136;28;20090;-70
2022/01/17 02:05:09;;;;;;;109.05;42.83;;;;;;;;;;5053708;28;20025;-73
2022/01/17 02:07:38;;;;;;;110.05;38.70;;;;;;;;;;5035511;28;20334;-72
2022/01/17 02:10:06;;;;;;;584.78;294.15;;;;;;;;;;5034856;28;20104;-73
2022/01/17 02:12:34;;;;;;;822.28;441.60;;;;;;;;;;5034868;28;20096;-71
2022/01/17 02:15:02;;;;;;;725.22;395.23;;;;;;;;;;5034057;28;20333;-71
2022/01/17 02:17:33;;;;;;;447.65;237.90;;;;;;;;;;5035109;28;20018;-72
2022/01/17 02:20:07;;;;;;;291.65;165.82;;;;;;;;;;5035087;28;20025;-73
2022/01/17 02:22:35;;;;;;;267.80;167.70;;;;;;;;;;5035198;28;20029;-73
2022/01/17 02:25:03;;;;;;;212.45;121.63;;;;;;;;;;5033817;28;20079;-74
2022/01/17 02:27:30;;;;;;;233.60;153.77;;;;;;;;;;5035095;28;20021;-74
2022/01/17 02:30:00;;;;;;;247.52;167.02;;;;;;;;;;5035169;28;20022;-75
2022/01/17 02:32:33;;;;;;;122.13;54.28;;;;;;;;;;5035200;28;20063;-76
2022/01/17 02:35:18;;;;;;;118.15;52.72;;;;;;;;;;5034034;28;20030;-73
2022/01/17 02:37:49;;;;;;;232.18;92.97;;;;;;;;;;5033696;28;20105;-74
2022/01/17 02:40:20;;;;;;;354.48;141.25;;;;;;;;;;5035092;28;20040;-72
2022/01/17 02:42:55;;;;;;;216.02;88.22;;;;;;;;;;5033886;28;20075;-75
2022/01/17 02:45:38;;;;;;;342.10;138.90;;;;;;;;;;5034561;28;20175;-74
2022/01/17 02:48:09;;;;;;;202.57;79.30;;;;;;;;;;5038587;28;20025;-74
2022/01/17 02:50:39;;;;;;;324.02;130.30;;;;;;;;;;5037606;28;20029;-76
2022/01/17 02:53:12;;;;;;;238.52;100.00;;;;;;;;;;5038557;28;20112;-75
2022/01/17 02:55:46;;;;;;;261.85;124.07;;;;;;;;;;5037310;28;20026;-74
2022/01/17 02:58:14;;;;;;;149.32;70.85;;;;;;;;;;5038445;28;20106;-74
2022/01/17 03:00:42;;;;;;;109.43;51.15;;;;;;;;;;5034617;28;20034;-77
2022/01/17 03:03:19;;;;;;;126.93;45.97;;;;;;;;;;5038779;28;20030;-79
2022/01/17 03:05:50;;;;;;;119.20;42.75;;;;;;;;;;5034307;28;20039;-76
2022/01/17 03:08:18;;;;;;;130.70;52.22;;;;;;;;;;5038143;28;20032;-73
2022/01/17 03:10:47;;;;;;;142.32;61.08;;;;;;;;;;5026450;28;20026;-76
2022/01/17 03:13:20;;;;;;;108.20;45.08;;;;;;;;;;5018535;28;20446;-71
2022/01/17 03:15:59;;;;;;;119.22;43.03;;;;;;;;;;5017191;28;20022;-72
2022/01/17 03:18:29;;;;;;;106.00;40.00;;;;;;;;;;5039092;28;20025;-77
2022/01/17 03:20:57;;;;;;;129.68;46.10;;;;;;;;;;5057848;28;20094;-75
2022/01/17 03:23:26;;;;;;;131.48;46.92;;;;;;;;;;5041902;28;20037;-73
2022/01/17 03:25:54;;;;;;;138.70;48.95;;;;;;;;;;5037916;28;20093;-71
2022/01/17 03:28:25;;;;;;;128.40;48.05;;;;;;;;;;5037793;28;20037;-76
2022/01/17 03:30:55;;;;;;;122.70;47.33;;;;;;;;;;5036512;28;20037;-80
2022/01/17 03:33:22;;;;;;;133.27;50.05;;;;;;;;;;5036058;28;20026;-77
2022/01/17 03:35:50;;;;;;;135.75;51.88;;;;;;;;;;5034418;28;20040;-78
2022/01/17 03:38:19;;;;;;;154.07;53.20;;;;;;;;;;5035919;28;20037;-80
2022/01/17 03:40:49;;;;;;;141.35;52.58;;;;;;;;;;5035682;28;20050;-77
2022/01/17 03:43:18;;;;;;;163.55;55.45;;;;;;;;;;5035530;28;20493;-77
2022/01/17 03:45:45;;;;;;;272.45;137.40;;;;;;;;;;5035341;28;20029;-79
2022/01/17 03:48:13;;;;;;;440.48;237.88;;;;;;;;;;5035892;28;20439;-79
2022/01/17 03:50:41;;;;;;;287.77;135.73;;;;;;;;;;5035365;28;20030;-78
2022/01/17 03:53:10;;;;;;;317.75;159.35;;;;;;;;;;5035144;28;20112;-80
2022/01/17 03:55:37;;;;;;;199.27;68.88;;;;;;;;;;5035272;28;20067;-74
2022/01/17 03:58:08;;;;;;;186.50;63.50;;;;;;;;;;5034428;28;20057;-71
2022/01/17 04:00:40;;;;;;;225.40;94.07;;;;;;;;;;5035068;28;20108;-71
2022/01/17 04:03:08;;;;;;;202.88;73.32;;;;;;;;;;5018219;28;20057;-74
2022/01/17 04:05:36;;;;;;;180.55;55.67;;;;;;;;;;5035155;28;20434;-76
2022/01/17 04:08:04;;;;;;;130.98;47.38;;;;;;;;;;5018490;28;20025;-77
2022/01/17 04:10:31;;;;;;;124.88;41.85;;;;;;;;;;5018439;28;20030;-74
2022/01/17 04:13:03;;;;;;;122.10;38.17;;;;;;;;;;5034901;28;20481;-75
2022/01/17 04:15:32;;;;;;;124.78;46.38;;;;;;;;;;5035024;28;20134;-71
2022/01/17 04:18:00;;;;;;;134.73;44.88;;;;;;;;;;5034901;28;20039;-72
2022/01/17 04:20:29;;;;;;;123.80;41.13;;;;;;;;;;5035037;28;20033;-73
2022/01/17 04:22:58;;;;;;;103.00;33.22;;;;;;;;;;5034914;28;20037;-75
2022/01/17 04:25:29;;;;;;;141.65;42.78;;;;;;;;;;5018434;28;20182;-79
2022/01/17 04:27:57;;;;;;;80.40;32.40;;;;;;;;;;5034636;28;20044;-74
2022/01/17 04:30:25;;;;;;;68.55;32.38;;;;;;;;;;5035118;28;20530;-76
2022/01/17 04:32:53;;;;;;;72.53;31.50;;;;;;;;;;5034766;28;20033;-78
2022/01/17 04:35:21;;;;;;;62.40;28.38;;;;;;;;;;5017996;28;20096;-77
2022/01/17 04:37:53;;;;;;;50.13;24.23;;;;;;;;;;5018077;28;20029;-78
2022/01/17 04:40:21;;;;;;;48.58;23.55;;;;;;;;;;5017975;28;20042;-77
2022/01/17 04:42:56;;;;;;;56.60;26.85;;;;;;;;;;5017726;28;20029;-77
2022/01/17 04:45:27;;;;;;;57.40;26.80;;;;;;;;;;5031651;28;20091;-72
2022/01/17 04:47:59;;;;;;;55.67;27.90;;;;;;;;;;5034531;28;20025;-74
2022/01/17 04:50:29;;;;;;;50.53;23.75;;;;;;;;;;5034618;28;20057;-74
2022/01/17 04:53:00;;;;;;;54.00;27.88;;;;;;;;;;5018207;28;20037;-76
2022/01/17 04:55:28;;;;;;;43.45;22.88;;;;;;;;;;5009094;28;20236;-72
2022/01/17 04:57:59;;;;;;;47.28;24.65;;;;;;;;;;5005990;28;20071;-76
2022/01/17 05:00:27;;;;;;;78.70;38.20;;;;;;;;;;4993101;28;20585;-74
2022/01/17 05:02:55;;;;;;;525.58;180.40;;;;;;;;;;5000726;28;20338;-76
2022/01/17 05:05:23;;;;;;;330.25;122.90;;;;;;;;;;5023380;28;20038;-73
2022/01/17 05:07:52;;;;;;;500.83;179.82;;;;;;;;;;5020879;28;20041;-77
2022/01/17 05:10:22;;;;;;;286.25;112.15;;;;;;;;;;5021702;28;20021;-73
2022/01/17 05:12:51;;;;;;;315.30;148.18;;;;;;;;;;5019982;28;20097;-72
2022/01/17 05:15:37;;;;;;;93.75;48.72;;;;;;;;;;5012466;28;20092;-76
2022/01/17 05:18:24;;;;;;;122.95;71.50;;;;;;;;;;5014765;28;20029;-73
2022/01/17 05:20:51;;;;;;;86.72;51.47;;;;;;;;;;5017065;28;20050;-74
2022/01/17 05:23:19;;;;;;;317.73;169.95;;;;;;;;;;5015745;28;20026;-76
2022/01/17 05:25:47;;;;;;;142.75;75.45;;;;;;;;;;5015577;28;20095;-74
2022/01/17 05:28:15;;;;;;;397.25;187.98;;;;;;;;;;5014404;28;20062;-77
2022/01/17 05:30:43;;;;;;;305.85;139.20;;;;;;;;;;5015679;28;20029;-75
2022/01/17 05:33:10;;;;;;;132.23;65.13;;;;;;;;;;5014219;28;20026;-74
2022/01/17 05:35:40;;;;;;;96.53;62.88;;;;;;;;;;5014119;28;20108;-75
2022/01/17 05:38:08;;;;;;;61.45;41.60;;;;;;;;;;5015402;28;20032;-76
2022/01/17 05:40:36;;;;;;;36.83;23.17;;;;;;;;;;5014335;28;20108;-73
2022/01/17 05:43:03;;;;;;;40.00;25.92;;;;;;;;;;5036091;28;20325;-74
2022/01/17 05:45:31;;;;;;;34.63;22.75;;;;;;;;;;5034606;28;20330;-73
2022/01/17 05:47:59;;;;;;;31.20;19.13;;;;;;;;;;5033291;28;20026;-75
2022/01/17 05:50:26;;;;;;;23.35;16.35;;;;;;;;;;5035370;28;20022;-73
2022/01/17 05:52:53;;;;;;;24.85;16.27;;;;;;;;;;5033581;28;20057;-75
2022/01/17 05:55:21;;;;;;;21.10;14.65;;;;;;;;;;5034910;28;20076;-74
2022/01/17 05:57:49;;;;;;;19.73;13.55;;;;;;;;;;5023659;28;20030;-71
2022/01/17 06:00:17;;;;;;;18.52;11.45;;;;;;;;;;5016647;28;20022;-73
2022/01/17 06:02:45;;;;;;;20.33;11.70;;;;;;;;;;5013770;28;20427;-71
2022/01/17 06:05:12;;;;;;;25.13;15.75;;;;;;;;;;5015126;28;20041;-71
2022/01/17 06:07:40;;;;;;;22.55;13.65;;;;;;;;;;5015430;28;20076;-71
2022/01/17 06:10:08;;;;;;;16.30;10.73;;;;;;;;;;5015955;28;20165;-72
2022/01/17 06:12:36;;;;;;;14.77;9.88;;;;;;;;;;5014024;28;20025;-72
2022/01/17 06:17:36;;;;;;;14.57;8.18;;;;;;;;;;5033273;28;20060;-71
2022/01/17 06:20:04;;;;;;;13.15;8.18;;;;;;;;;;5034142;28;20117;-73
2022/01/17 06:22:32;;;;;;;16.02;10.82;;;;;;;;;;5038408;28;20048;-72
2022/01/17 06:25:00;;;;;;;12.55;8.20;;;;;;;;;;5038751;28;20022;-75
2022/01/17 06:27:27;;;;;;;12.25;7.13;;;;;;;;;;5037594;28;20086;-77
2022/01/17 06:29:56;;;;;;;10.63;7.03;;;;;;;;;;5037651;28;20426;-77
2022/01/17 06:32:23;;;;;;;12.48;7.60;;;;;;;;;;5037417;28;20029;-76
2022/01/17 06:34:54;;;;;;;13.27;6.75;;;;;;;;;;5037802;28;20070;-77
2022/01/17 06:37:22;;;;;;;11.20;5.75;;;;;;;;;;5037071;28;20022;-79
2022/01/17 06:39:50;;;;;;;9.95;5.00;;;;;;;;;;5037426;28;20026;-76
2022/01/17 06:42:17;;;;;;;10.27;5.72;;;;;;;;;;5038306;28;20022;-76
2022/01/17 06:44:45;;;;;;;9.98;4.22;;;;;;;;;;5037215;28;20193;-75
2022/01/17 06:47:13;;;;;;;8.85;4.80;;;;;;;;;;5037888;28;20109;-77
2022/01/17 06:49:40;;;;;;;11.10;5.10;;;;;;;;;;5041764;28;20108;-75
2022/01/17 06:52:10;;;;;;;11.32;5.30;;;;;;;;;;5038199;28;20303;-77
2022/01/17 06:54:38;;;;;;;13.15;6.18;;;;;;;;;;5037911;28;20044;-74
2022/01/17 06:57:06;;;;;;;21.23;8.90;;;;;;;;;;5037531;28;20049;-77
2022/01/17 06:59:33;;;;;;;9.48;4.40;;;;;;;;;;5038768;28;20026;-77
2022/01/17 07:02:01;;;;;;;12.15;4.60;;;;;;;;;;5038053;28;20030;-78
2022/01/17 07:04:29;;;;;;;24.60;10.77;;;;;;;;;;5037188;28;20040;-76
2022/01/17 07:06:56;;;;;;;100.38;56.47;;;;;;;;;;5032176;28;20115;-76
2022/01/17 07:09:27;;;;;;;45.67;27.40;;;;;;;;;;5027042;28;20052;-78
2022/01/17 07:12:04;;;;;;;14.13;7.30;;;;;;;;;;5026780;28;20093;-76
2022/01/17 07:14:32;;;;;;;17.63;7.88;;;;;;;;;;5029056;28;20092;-75
2022/01/17 07:16:59;;;;;;;17.35;8.25;;;;;;;;;;5026792;28;20038;-77
2022/01/17 07:19:26;;;;;;;17.70;8.27;;;;;;;;;;5038273;28;20111;-76
2022/01/17 07:21:54;;;;;;;16.60;7.63;;;;;;;;;;5035461;28;20107;-76
2022/01/17 07:24:21;;;;;;;57.10;25.20;;;;;;;;;;5026013;28;20032;-77
2022/01/17 07:26:49;;;;;;;77.68;34.60;;;;;;;;;;5029086;28;20460;-74
2022/01/17 07:29:17;;;;;;;90.65;32.20;;;;;;;;;;5032488;28;20021;-73
2022/01/17 07:31:44;;;;;;;218.13;57.65;;;;;;;;;;5024142;28;20042;-76
2022/01/17 07:34:12;;;;;;;154.15;64.47;;;;;;;;;;5025373;28;20033;-78
2022/01/17 07:36:39;;;;;;;65.50;35.72;;;;;;;;;;5020452;28;20100;-76
2022/01/17 07:39:07;;;;;;;26.95;15.30;;;;;;;;;;5033320;28;20030;-70
2022/01/17 07:41:38;;;;;;;24.48;12.55;;;;;;;;;;5031088;28;20026;-79
2022/01/17 07:44:08;;;;;;;19.20;12.82;;;;;;;;;;5034099;28;20043;-78
2022/01/17 07:46:47;;;;;;;22.98;10.85;;;;;;;;;;5032386;28;20025;-77
2022/01/17 07:49:19;;;;;;;21.95;11.57;;;;;;;;;;5024132;28;20290;-77
2022/01/17 07:51:49;;;;;;;17.38;11.38;;;;;;;;;;5030219;28;20028;-75
2022/01/17 07:54:18;;;;;;;27.38;13.80;;;;;;;;;;5025207;28;20026;-79
2022/01/17 07:56:48;;;;;;;20.92;12.80;;;;;;;;;;5023661;28;20088;-75
2022/01/17 07:59:16;;;;;;;27.48;14.27;;;;;;;;;;5026971;28;20022;-77
2022/01/17 08:01:43;;;;;;;21.58;13.73;;;;;;;;;;5028726;28;20112;-76
2022/01/17 08:04:11;;;;;;;24.45;14.52;;;;;;;;;;5037051;28;20030;-79
2022/01/17 08:06:39;;;;;;;23.67;14.25;;;;;;;;;;5031494;28;20030;-83
2022/01/17 08:09:08;;;;;;;23.00;13.27;;;;;;;;;;5017090;28;20076;-78
2022/01/17 08:11:36;;;;;;;28.00;14.73;;;;;;;;;;5015726;28;20034;-80
2022/01/17 08:14:04;;;;;;;17.25;10.23;;;;;;;;;;5016921;28;20105;-78
2022/01/17 08:16:30;;;;;;;25.58;12.85;;;;;;;;;;4975994;28;20055;-70
2022/01/17 08:18:58;;;;;;;20.60;11.57;;;;;;;;;;4965415;28;20061;-75
2022/01/17 08:21:25;;;;;;;40.03;26.45;;;;;;;;;;4995414;28;20034;-81
2022/01/17 08:23:53;;;;;;;24.83;18.08;;;;;;;;;;4995050;28;20039;-79
2022/01/17 08:26:22;;;;;;;23.45;13.25;;;;;;;;;;4994714;28;20109;-79
2022/01/17 08:28:50;;;;;;;24.70;13.23;;;;;;;;;;4995280;28;20093;-80
2022/01/17 08:31:17;;;;;;;16.35;9.45;;;;;;;;;;4995142;28;20026;-75
2022/01/17 08:33:45;;;;;;;14.20;8.82;;;;;;;;;;4994899;28;20023;-79
2022/01/17 08:36:13;;;;;;;17.25;9.68;;;;;;;;;;4995382;28;20050;-79
2022/01/17 08:38:41;;;;;;;19.52;11.50;;;;;;;;;;4994611;28;20019;-75
2022/01/17 08:41:09;;;;;;;23.23;16.02;;;;;;;;;;4978493;28;20031;-78
2022/01/17 08:43:36;;;;;;;25.83;17.40;;;;;;;;;;4979004;28;20022;-81
2022/01/17 08:46:06;;;;;;;42.75;27.70;;;;;;;;;;4978813;28;20049;-74
2022/01/17 08:48:34;;;;;;;26.33;18.45;;;;;;;;;;4995057;28;20423;-80
2022/01/17 08:51:01;;;;;;;30.30;20.27;;;;;;;;;;4979429;28;20022;-79
2022/01/17 08:53:41;;;;;;;27.90;19.50;;;;;;;;;;4978736;28;20022;-81
2022/01/17 08:56:14;;;;;;;37.63;25.23;;;;;;;;;;4994990;28;20398;-81
2022/01/17 08:58:42;;;;;;;38.30;26.48;;;;;;;;;;4993058;28;20485;-81
2022/01/17 09:01:13;;;;;;;51.53;28.92;;;;;;;;;;4991547;28;20046;-84
2022/01/17 09:03:42;;;;;;;43.45;26.80;;;;;;;;;;4994845;28;20019;-79
2022/01/17 09:06:09;;;;;;;39.33;25.00;;;;;;;;;;5003395;28;20057;-74
2022/01/17 09:08:58;;;;;;;41.08;25.85;;;;;;;;;;5014492;28;20034;-83
2022/01/17 09:11:25;;;;;;;39.53;23.63;;;;;;;;;;5015460;28;20060;-78
2022/01/17 09:13:53;;;;;;;34.80;20.73;;;;;;;;;;5015563;28;20034;-81
2022/01/17 09:16:19;;;;;;;30.48;20.10;;;;;;;;;;5025305;28;20050;-80
2022/01/17 09:18:50;;;;;;;34.80;22.17;;;;;;;;;;5015616;28;20025;-79
2022/01/17 09:21:17;;;;;;;39.78;25.35;;;;;;;;;;5031614;28;20041;-80
2022/01/17 09:23:45;;;;;;;37.90;24.65;;;;;;;;;;5031508;28;20030;-77
2022/01/17 09:26:18;;;;;;;45.92;28.38;;;;;;;;;;5015767;28;20053;-80
2022/01/17 09:28:47;;;;;;;44.97;27.88;;;;;;;;;;5031511;28;20120;-75
2022/01/17 09:31:16;;;;;;;41.50;24.73;;;;;;;;;;5031456;28;20022;-78
2022/01/17 09:33:43;;;;;;;40.55;25.17;;;;;;;;;;5015426;28;20021;-81
2022/01/17 09:36:11;;;;;;;42.67;24.55;;;;;;;;;;5015907;28;20018;-81
2022/01/17 09:38:38;;;;;;;39.63;25.23;;;;;;;;;;5031552;28;20322;-80
2022/01/17 09:41:06;;;;;;;38.88;24.90;;;;;;;;;;5016079;28;20022;-76
2022/01/17 09:43:38;;;;;;;39.80;25.55;;;;;;;;;;5031394;28;20482;-79
2022/01/17 09:46:06;;;;;;;41.30;25.23;;;;;;;;;;5031426;28;20030;-81
2022/01/17 09:48:38;;;;;;;41.88;25.25;;;;;;;;;;5031080;28;20450;-81
2022/01/17 09:52:05;;;;;;;39.15;22.75;;;;;;;;;;5031834;28;20034;-83
2022/01/17 09:54:04;;;;;;;41.58;25.13;;;;;;;;;;5015488;28;20326;-77
2022/01/17 09:56:30;;;;;;;39.67;23.45;;;;;;;;;;5021976;28;20026;-77
2022/01/17 09:58:58;;;;;;;41.85;24.85;;;;;;;;;;5022951;28;20126;-78
2022/01/17 10:01:27;;;;;;;46.65;29.80;;;;;;;;;;5038490;28;20109;-77
2022/01/17 10:03:57;;;;;;;52.17;31.85;;;;;;;;;;5037941;28;20109;-77
2022/01/17 10:06:27;;;;;;;57.58;32.88;;;;;;;;;;5037868;28;20049;-79
2022/01/17 10:09:17;;;;;;;53.55;30.35;;;;;;;;;;5037892;28;20026;-79
2022/01/17 10:12:03;;;;;;;54.30;31.73;;;;;;;;;;5022376;28;20427;-77
2022/01/17 10:14:35;;;;;;;54.17;31.05;;;;;;;;;;5040686;28;20033;-76
2022/01/17 10:17:03;;;;;;;52.72;31.83;;;;;;;;;;5040365;28;20115;-81
2022/01/17 10:19:31;;;;;;;50.53;29.05;;;;;;;;;;5040444;28;20068;-80
2022/01/17 10:22:01;;;;;;;48.85;29.02;;;;;;;;;;5040224;28;20423;-76
2022/01/17 10:24:40;;;;;;;44.83;26.45;;;;;;;;;;5039936;28;20026;-76
2022/01/17 10:27:19;;;;;;;41.35;26.02;;;;;;;;;;5039640;28;20029;-78
2022/01/17 10:35:22;;;;;;;39.75;24.75;;;;;;;;;;5040586;28;20025;-77
2022/01/17 10:38:08;;;;;;;45.58;28.58;;;;;;;;;;5039731;28;20025;-74
2022/01/17 10:40:44;;;;;;;44.10;27.23;;;;;;;;;;5039796;28;20033;-81
2022/01/17 10:43:26;;;;;;;47.88;30.20;;;;;;;;;;5040107;28;20317;-76
2022/01/17 10:45:55;;;;;;;55.13;33.88;;;;;;;;;;5039895;28;20038;-76
2022/01/17 10:48:34;;;;;;;54.17;33.05;;;;;;;;;;5040354;28;20033;-79
2022/01/17 10:51:03;;;;;;;54.83;31.88;;;;;;;;;;5037794;28;20022;-78
2022/01/17 10:53:33;;;;;;;56.40;33.85;;;;;;;;;;5037918;28;20306;-76
2022/01/17 10:56:07;;;;;;;57.38;33.70;;;;;;;;;;5032373;28;20100;-75
2022/01/17 10:58:36;;;;;;;54.22;30.83;;;;;;;;;;5041882;28;20087;-79
2022/01/17 11:01:08;;;;;;;56.30;32.15;;;;;;;;;;5042109;28;20028;-81
2022/01/17 11:03:36;;;;;;;72.93;33.58;;;;;;;;;;5040748;28;20035;-80
2022/01/17 11:06:05;;;;;;;85.82;36.08;;;;;;;;;;5040253;28;20036;-79
2022/01/17 11:08:34;;;;;;;66.30;33.70;;;;;;;;;;5037738;28;20031;-80
2022/01/17 11:11:05;;;;;;;56.97;30.05;;;;;;;;;;5037772;28;20480;-79
2022/01/17 11:13:43;;;;;;;68.03;35.00;;;;;;;;;;5037716;28;20026;-79
2022/01/17 11:16:13;;;;;;;89.78;50.42;;;;;;;;;;5038713;28;20429;-77
2022/01/17 11:18:43;;;;;;;89.07;50.78;;;;;;;;;;5038419;28;20025;-77
2022/01/17 11:21:13;;;;;;;91.90;50.80;;;;;;;;;;5037164;28;20025;-78
2022/01/17 11:23:43;;;;;;;96.53;52.15;;;;;;;;;;5038285;28;20021;-70
2022/01/17 11:26:11;;;;;;;109.13;58.25;;;;;;;;;;5038204;28;20021;-73
2022/01/17 11:28:42;;;;;;;98.55;51.83;;;;;;;;;;5038743;28;20105;-72
2022/01/17 11:31:15;;;;;;;94.07;50.78;;;;;;;;;;5039885;28;20053;-72
2022/01/17 11:33:46;;;;;;;113.35;59.88;;;;;;;;;;5039208;28;20018;-72
2022/01/17 11:36:13;;;;;;;105.03;55.58;;;;;;;;;;5043289;28;20028;-74
2022/01/17 11:38:43;;;;;;;112.20;57.38;;;;;;;;;;5037036;28;20030;-74
2022/01/17 11:41:29;;;;;;;118.63;61.20;;;;;;;;;;5038000;28;20099;-74
2022/01/17 11:43:58;;;;;;;118.63;62.22;;;;;;;;;;5037452;28;20036;-75
2022/01/17 11:46:28;;;;;;;133.60;67.47;;;;;;;;;;5037746;28;20056;-75
2022/01/17 11:49:12;;;;;;;176.90;82.72;;;;;;;;;;5036795;28;20048;-73
2022/01/17 11:51:46;;;;;;;160.75;82.60;;;;;;;;;;5036764;28;20026;-73
2022/01/17 11:54:19;;;;;;;193.88;109.65;;;;;;;;;;5037902;28;20021;-74
2022/01/17 11:56:59;;;;;;;151.98;78.68;;;;;;;;;;5037401;28;20116;-73
2022/01/17 11:59:46;;;;;;;185.55;90.18;;;;;;;;;;5037604;28;20029;-73
2022/01/17 12:02:29;;;;;;;185.30;94.82;;;;;;;;;;5036457;28;20117;-76
2022/01/17 12:05:12;;;;;;;172.63;87.28;;;;;;;;;;5037257;28;20037;-71
2022/01/17 12:07:56;;;;;;;198.70;95.45;;;;;;;;;;5037291;28;20025;-71
2022/01/17 12:10:39;;;;;;;183.23;84.68;;;;;;;;;;5036405;28;20116;-71
2022/01/17 12:13:16;;;;;;;169.55;82.25;;;;;;;;;;5040327;28;20414;-71
2022/01/17 12:15:58;;;;;;;173.10;84.30;;;;;;;;;;5038895;28;20099;-77
2022/01/17 12:18:33;;;;;;;210.63;100.07;;;;;;;;;;5037913;28;20029;-75
2022/01/17 12:21:19;;;;;;;135.75;63.95;;;;;;;;;;5038521;28;20029;-71
2022/01/17 12:23:47;;;;;;;180.52;89.63;;;;;;;;;;5038684;28;20037;-73
2022/01/17 12:26:32;;;;;;;175.90;89.22;;;;;;;;;;5039260;28;20391;-72
2022/01/17 12:29:00;;;;;;;206.02;99.82;;;;;;;;;;5038889;28;20051;-71
2022/01/17 12:31:45;;;;;;;187.00;89.45;;;;;;;;;;5040144;28;20098;-72
2022/01/17 12:34:26;;;;;;;266.98;124.25;;;;;;;;;;5038573;28;20374;-73
2022/01/17 12:37:00;;;;;;;277.20;119.65;;;;;;;;;;5039415;28;20120;-71
2022/01/17 12:39:29;;;;;;;242.80;108.72;;;;;;;;;;5037728;28;20333;-75
2022/01/17 12:42:03;;;;;;;188.25;93.00;;;;;;;;;;5038969;28;20033;-76
2022/01/17 12:44:34;;;;;;;138.23;66.25;;;;;;;;;;5037694;28;20036;-82
2022/01/17 12:47:04;;;;;;;141.77;68.45;;;;;;;;;;5038975;28;20028;-74
2022/01/17 12:49:32;;;;;;;189.88;89.20;;;;;;;;;;5037872;28;20116;-73
2022/01/17 12:52:00;;;;;;;233.18;102.18;;;;;;;;;;5038504;28;20037;-74
2022/01/17 12:54:33;;;;;;;231.50;108.82;;;;;;;;;;5038232;28;20030;-71
2022/01/17 12:57:01;;;;;;;262.85;114.70;;;;;;;;;;5040112;28;20410;-70
2022/01/17 12:59:31;;;;;;;242.25;108.28;;;;;;;;;;5039478;28;20022;-70
2022/01/17 13:02:01;;;;;;;257.65;109.47;;;;;;;;;;5038384;28;20030;-71
2022/01/17 13:04:30;;;;;;;248.57;108.10;;;;;;;;;;5037199;28;20029;-74
2022/01/17 13:06:57;;;;;;;226.25;104.45;;;;;;;;;;5037326;28;20025;-75
2022/01/17 13:09:27;;;;;;;226.25;102.65;;;;;;;;;;5038529;28;20032;-74
2022/01/17 13:11:57;;;;;;;237.98;105.05;;;;;;;;;;5038689;28;20053;-76
2022/01/17 13:14:25;;;;;;;282.70;124.10;;;;;;;;;;5038949;28;20022;-73
2022/01/17 13:16:51;;;;;;;249.55;103.00;;;;;;;;;;5040065;28;20053;-71
2022/01/17 13:19:19;;;;;;;244.70;103.03;;;;;;;;;;5039050;28;20079;-73
2022/01/17 13:21:47;;;;;;;247.63;107.97;;;;;;;;;;5037379;28;20024;-74
2022/01/17 13:27:01;;;;;;;233.25;110.28;;;;;;;;;;5036955;28;20049;-74
2022/01/17 13:29:36;;;;;;;209.70;94.80;;;;;;;;;;5036581;28;20407;-73
2022/01/17 13:32:05;;;;;;;279.85;114.03;;;;;;;;;;5036931;28;20028;-73
2022/01/17 13:34:32;;;;;;;181.82;83.97;;;;;;;;;;5036736;28;20429;-79
2022/01/17 13:37:05;;;;;;;182.20;83.18;;;;;;;;;;5035802;28;20032;-73
2022/01/17 13:39:34;;;;;;;140.45;64.03;;;;;;;;;;5037733;28;20095;-75
2022/01/17 13:42:04;;;;;;;105.05;49.58;;;;;;;;;;5035981;28;20026;-79
2022/01/17 13:44:37;;;;;;;97.70;44.80;;;;;;;;;;5035031;28;20448;-76
2022/01/17 13:47:10;;;;;;;95.47;43.78;;;;;;;;;;5035724;28;20029;-73
2022/01/17 13:49:38;;;;;;;89.95;39.58;;;;;;;;;;5035544;28;20045;-74
2022/01/17 13:52:06;;;;;;;79.72;36.60;;;;;;;;;;5034840;28;20283;-79
2022/01/17 13:54:35;;;;;;;70.68;32.08;;;;;;;;;;5035792;28;20028;-75
2022/01/17 13:57:03;;;;;;;61.83;30.58;;;;;;;;;;5034548;28;20032;-78
2022/01/17 13:59:31;;;;;;;65.03;29.55;;;;;;;;;;5034545;28;20029;-76
2022/01/17 14:01:59;;;;;;;54.33;24.65;;;;;;;;;;5035644;28;20041;-77
2022/01/17 14:04:30;;;;;;;60.65;26.60;;;;;;;;;;5034682;28;20029;-77
2022/01/17 14:06:58;;;;;;;48.55;24.10;;;;;;;;;;5034823;28;20040;-78
2022/01/17 14:09:36;;;;;;;50.13;24.85;;;;;;;;;;5035547;28;20078;-72
2022/01/17 14:12:10;;;;;;;50.55;24.42;;;;;;;;;;5034829;28;20028;-80
2022/01/17 14:14:38;;;;;;;48.10;23.02;;;;;;;;;;5035605;28;20029;-80
2022/01/17 14:17:04;;;;;;;69.93;31.20;;;;;;;;;;5035394;28;20061;-77
2022/01/17 14:19:35;;;;;;;58.92;28.30;;;;;;;;;;5034593;28;20032;-75
2022/01/17 14:22:06;;;;;;;55.58;25.77;;;;;;;;;;5034520;28;20086;-71
2022/01/17 14:24:38;;;;;;;49.05;23.25;;;;;;;;;;5035576;28;20171;-74
2022/01/17 14:27:18;;;;;;;45.80;21.73;;;;;;;;;;5035602;28;20041;-76
2022/01/17 14:30:10;;;;;;;55.67;26.52;;;;;;;;;;5035539;28;20422;-79
2022/01/17 14:32:38;;;;;;;69.53;29.23;;;;;;;;;;4974642;28;20078;-76
2022/01/17 14:35:08;;;;;;;65.78;27.90;;;;;;;;;;4974842;28;20039;-80
2022/01/17 14:37:37;;;;;;;61.78;29.65;;;;;;;;;;4974797;28;20039;-82
2022/01/17 14:40:08;;;;;;;63.70;28.83;;;;;;;;;;4974970;28;20387;-82
2022/01/17 14:42:41;;;;;;;58.05;27.65;;;;;;;;;;4977711;28;20039;-79
2022/01/17 14:45:12;;;;;;;50.35;24.13;;;;;;;;;;4978343;28;20045;-78